| time (UTC) | temp F | wind direction | speed MPH | gust MPH | rain 1hr in | rain 24hr in | rain mn in | humidity % | barometer mb |
| 20260502235213 | 60 | 220 | 6.0 | 8.0 | 0.00 | 0.00 | 0.00 | 27 | 1016.5 |
| 20260502234709 | 60 | 258 | 7.0 | 9.0 | 0.00 | 0.00 | 0.00 | 27 | 1017.0 |
| 20260502234206 | 61 | 326 | 6.0 | 8.0 | 0.00 | 0.00 | 0.00 | 27 | 1016.9 |
| 20260502233702 | 61 | 261 | 3.0 | 6.0 | 0.00 | 0.00 | 0.00 | 27 | 1016.9 |
| 20260502233159 | 61 | 40 | 2.0 | 4.0 | 0.00 | 0.00 | 0.00 | 27 | 1017.1 |
| 20260502232655 | 61 | 289 | 4.0 | 4.0 | 0.00 | 0.00 | 0.00 | 27 | 1017.0 |
| 20260502232153 | 61 | 196 | 4.0 | 6.0 | 0.00 | 0.00 | 0.00 | 27 | 1017.2 |
| 20260502231649 | 61 | 268 | 5.0 | 7.0 | 0.00 | 0.00 | 0.00 | 27 | 1017.1 |
| 20260502231147 | 61 | 256 | 9.0 | 13.0 | 0.00 | 0.00 | 0.00 | 26 | 1017.0 |
| 20260502230645 | 61 | 245 | 5.0 | 7.0 | 0.00 | 0.00 | 0.00 | 27 | 1017.3 |
| 20260502230143 | 61 | 222 | 4.0 | 6.0 | 0.00 | 0.00 | 0.00 | 27 | 1017.3 |
| 20260502225638 | 61 | 268 | 2.0 | 3.0 | 0.00 | 0.00 | 0.00 | 27 | 1017.3 |
| 20260502225136 | 61 | 299 | 8.0 | 10.0 | 0.00 | 0.00 | 0.00 | 27 | 1017.4 |
| 20260502224632 | 61 | 296 | 3.0 | 3.0 | 0.00 | 0.00 | 0.00 | 27 | 1017.5 |
| 20260502224129 | 62 | 228 | 8.0 | 11.0 | 0.00 | 0.00 | 0.00 | 27 | 1017.5 |
| 20260502223627 | 61 | 244 | 8.0 | 10.0 | 0.00 | 0.00 | 0.00 | 27 | 1017.4 |
| 20260502223125 | 62 | 13 | 6.0 | 8.0 | 0.00 | 0.00 | 0.00 | 27 | 1017.4 |
| 20260502222622 | 61 | 256 | 3.0 | 3.0 | 0.00 | 0.00 | 0.00 | 27 | 1017.6 |
| 20260502222118 | 61 | 316 | 5.0 | 7.0 | 0.00 | 0.00 | 0.00 | 26 | 1017.7 |
| 20260502221614 | 61 | 254 | 5.0 | 7.0 | 0.00 | 0.00 | 0.00 | 26 | 1017.6 |
| 20260502221111 | 61 | 195 | 4.0 | 6.0 | 0.00 | 0.00 | 0.00 | 26 | 1017.7 |
| 20260502220608 | 61 | 333 | 6.0 | 9.0 | 0.00 | 0.00 | 0.00 | 27 | 1017.6 |
| 20260502220104 | 60 | 285 | 8.0 | 10.0 | 0.00 | 0.00 | 0.00 | 26 | 1017.8 |
| 20260502215601 | 61 | 275 | 9.0 | 10.0 | 0.00 | 0.00 | 0.00 | 27 | 1017.8 |
| 20260502215058 | 62 | 229 | 5.0 | 9.0 | 0.00 | 0.00 | 0.00 | 27 | 1017.7 |
| 20260502214555 | 61 | 269 | 4.0 | 6.0 | 0.00 | 0.00 | 0.00 | 26 | 1018.0 |
| 20260502214052 | 61 | 310 | 3.0 | 6.0 | 0.00 | 0.00 | 0.00 | 27 | 1017.9 |
| 20260502213549 | 61 | 267 | 5.0 | 8.0 | 0.00 | 0.00 | 0.00 | 26 | 1017.8 |
| 20260502213047 | 61 | 264 | 6.0 | 9.0 | 0.00 | 0.00 | 0.00 | 27 | 1018.0 |
| 20260502212546 | 61 | 298 | 9.0 | 11.0 | 0.00 | 0.00 | 0.00 | 27 | 1018.0 |
| 20260502212043 | 61 | 232 | 4.0 | 7.0 | 0.00 | 0.00 | 0.00 | 27 | 1017.9 |
| 20260502211538 | 61 | 276 | 3.0 | 4.0 | 0.00 | 0.00 | 0.00 | 26 | 1018.0 |
| 20260502211036 | 60 | 280 | 7.0 | 8.0 | 0.00 | 0.00 | 0.00 | 26 | 1018.2 |
| 20260502210532 | 61 | 267 | 4.0 | 9.0 | 0.00 | 0.00 | 0.00 | 27 | 1018.3 |
| 20260502210030 | 60 | 285 | 3.0 | 4.0 | 0.00 | 0.00 | 0.00 | 28 | 1018.2 |
| 20260502205526 | 60 | 244 | 7.0 | 8.0 | 0.00 | 0.00 | 0.00 | 27 | 1018.5 |
| 20260502205023 | 60 | 249 | 4.0 | 6.0 | 0.00 | 0.00 | 0.00 | 27 | 1018.4 |
| 20260502204520 | 60 | 292 | 6.0 | 8.0 | 0.00 | 0.00 | 0.00 | 26 | 1018.5 |
| 20260502204018 | 60 | 234 | 2.0 | 3.0 | 0.00 | 0.00 | 0.00 | 27 | 1018.5 |
| 20260502203515 | 61 | 272 | 9.0 | 10.0 | 0.00 | 0.00 | 0.00 | 27 | 1018.7 |
| 20260502203012 | 60 | 286 | 3.0 | 4.0 | 0.00 | 0.00 | 0.00 | 26 | 1018.7 |
| 20260502202508 | 59 | 245 | 4.0 | 6.0 | 0.00 | 0.00 | 0.00 | 27 | 1018.7 |
| 20260502202006 | 61 | 307 | 4.0 | 4.0 | 0.00 | 0.00 | 0.00 | 26 | 1018.9 |
| 20260502201502 | 60 | 280 | 5.0 | 7.0 | 0.00 | 0.00 | 0.00 | 27 | 1018.9 |
| 20260502200958 | 60 | 253 | 8.0 | 10.0 | 0.00 | 0.00 | 0.00 | 26 | 1019.1 |
| 20260502200455 | 59 | 285 | 4.0 | 7.0 | 0.00 | 0.00 | 0.00 | 28 | 1019.0 |
| 20260502195952 | 59 | 270 | 5.0 | 6.0 | 0.00 | 0.00 | 0.00 | 27 | 1019.0 |
| 20260502195450 | 59 | 290 | 6.0 | 8.0 | 0.00 | 0.00 | 0.00 | 27 | 1019.4 |
| 20260502194945 | 58 | 267 | 4.0 | 7.0 | 0.00 | 0.00 | 0.00 | 28 | 1019.3 |
| 20260502194443 | 59 | 279 | 7.0 | 9.0 | 0.00 | 0.00 | 0.00 | 27 | 1019.4 |
| 20260502193938 | 59 | 315 | 8.0 | 9.0 | 0.00 | 0.00 | 0.00 | 27 | 1019.4 |
| 20260502193436 | 59 | 277 | 4.0 | 6.0 | 0.00 | 0.00 | 0.00 | 28 | 1019.5 |
| 20260502192931 | 58 | 281 | 7.0 | 10.0 | 0.00 | 0.00 | 0.00 | 29 | 1019.5 |
| 20260502192428 | 59 | 265 | 0.0 | 1.0 | 0.00 | 0.00 | 0.00 | 28 | 1019.5 |
| 20260502191925 | 59 | 265 | 6.0 | 7.0 | 0.00 | 0.00 | 0.00 | 28 | 1019.7 |
| 20260502191423 | 59 | 264 | 11.0 | 14.0 | 0.00 | 0.00 | 0.00 | 28 | 1019.6 |
| 20260502190920 | 59 | 326 | 2.0 | 3.0 | 0.00 | 0.00 | 0.00 | 29 | 1019.7 |
| 20260502190417 | 59 | 298 | 4.0 | 6.0 | 0.00 | 0.00 | 0.00 | 28 | 1020.0 |
| 20260502185913 | 58 | 244 | 2.0 | 2.0 | 0.00 | 0.00 | 0.00 | 29 | 1019.9 |
| 20260502185409 | 58 | 241 | 4.0 | 6.0 | 0.00 | 0.00 | 0.00 | 28 | 1020.2 |
| 20260502184907 | 58 | 248 | 10.0 | 13.0 | 0.00 | 0.00 | 0.00 | 29 | 1020.1 |
| 20260502184402 | 57 | 298 | 6.0 | 7.0 | 0.00 | 0.00 | 0.00 | 30 | 1020.1 |
| 20260502183859 | 58 | 318 | 1.0 | 2.0 | 0.00 | 0.00 | 0.00 | 30 | 1020.2 |
| 20260502183354 | 57 | 223 | 3.0 | 4.0 | 0.00 | 0.00 | 0.00 | 29 | 1020.4 |
| 20260502182850 | 58 | 275 | 5.0 | 6.0 | 0.00 | 0.00 | 0.00 | 28 | 1020.3 |
| 20260502182346 | 57 | 306 | 7.0 | 8.0 | 0.00 | 0.00 | 0.00 | 29 | 1020.4 |
| 20260502181842 | 57 | 286 | 5.0 | 8.0 | 0.00 | 0.00 | 0.00 | 30 | 1020.4 |
| 20260502181341 | 58 | 282 | 6.0 | 6.0 | 0.00 | 0.00 | 0.00 | 29 | 1020.7 |
| 20260502180839 | 58 | 250 | 3.0 | 4.0 | 0.00 | 0.00 | 0.00 | 29 | 1020.5 |
| 20260502180336 | 56 | 305 | 6.0 | 7.0 | 0.00 | 0.00 | 0.00 | 30 | 1020.6 |
| 20260502170254 | 55 | 267 | 7.0 | 11.0 | 0.00 | 0.00 | 0.00 | 32 | 1021.1 |
| 20260502164242 | 54 | 3 | 4.0 | 4.0 | 0.00 | 0.00 | 0.00 | 34 | 1021.3 |
| 20260502163737 | 54 | 277 | 4.0 | 6.0 | 0.00 | 0.00 | 0.00 | 33 | 1021.4 |
| 20260502163234 | 55 | 297 | 4.0 | 6.0 | 0.00 | 0.00 | 0.00 | 34 | 1021.3 |
| 20260502162731 | 56 | 289 | 5.0 | 7.0 | 0.00 | 0.00 | 0.00 | 33 | 1021.3 |
| 20260502162228 | 54 | 271 | 1.0 | 4.0 | 0.00 | 0.00 | 0.00 | 35 | 1021.5 |
| 20260502161725 | 54 | 216 | 6.0 | 8.0 | 0.00 | 0.00 | 0.00 | 34 | 1021.5 |
| 20260502161222 | 54 | 271 | 4.0 | 6.0 | 0.00 | 0.00 | 0.00 | 36 | 1021.6 |
| 20260502160720 | 53 | 281 | 4.0 | 6.0 | 0.00 | 0.00 | 0.00 | 36 | 1021.5 |
| 20260502160219 | 54 | 287 | 7.0 | 10.0 | 0.00 | 0.00 | 0.00 | 35 | 1021.7 |
| 20260502152143 | 52 | 275 | 9.0 | 10.0 | 0.00 | 0.00 | 0.00 | 39 | 1022.0 |
| 20260502151640 | 52 | 276 | 7.0 | 8.0 | 0.00 | 0.00 | 0.00 | 41 | 1021.8 |
| 20260502151137 | 51 | 276 | 5.0 | 8.0 | 0.00 | 0.00 | 0.00 | 43 | 1021.9 |
| 20260502150635 | 52 | 321 | 5.0 | 7.0 | 0.00 | 0.00 | 0.00 | 42 | 1021.9 |
| 20260502150131 | 51 | 283 | 7.0 | 9.0 | 0.00 | 0.00 | 0.00 | 45 | 1021.9 |
| 20260502130520 | 41 | 9 | 1.0 | 1.0 | 0.00 | 0.00 | 0.00 | 75 | 1022.0 |
| 20260502123503 | 39 | 61 | 0.0 | 0.0 | 0.00 | 0.00 | 0.00 | 79 | 1022.0 |
| 20260502122959 | 38 | 45 | 0.0 | 0.0 | 0.00 | 0.00 | 0.00 | 78 | 1022.0 |
| 20260502122455 | 39 | 56 | 0.0 | 0.0 | 0.00 | 0.00 | 0.00 | 79 | 1021.9 |
| 20260502121953 | 37 | 54 | 0.0 | 0.0 | 0.00 | 0.00 | 0.00 | 79 | 1021.7 |
| 20260502121450 | 37 | 52 | 0.0 | 0.0 | 0.00 | 0.00 | 0.00 | 78 | 1021.7 |
| 20260502120948 | 37 | 53 | 0.0 | 0.0 | 0.00 | 0.00 | 0.00 | 78 | 1021.8 |
| 20260502120444 | 37 | 56 | 0.0 | 0.0 | 0.00 | 0.00 | 0.00 | 81 | 1021.7 |
| 20260502115438 | 34 | 54 | 0.0 | 0.0 | 0.00 | 0.00 | 0.00 | 86 | 1021.8 |
| 20260502114934 | 34 | 54 | 0.0 | 0.0 | 0.00 | 0.00 | 0.00 | 87 | 1021.7 |
| 20260502114431 | 33 | 54 | 0.0 | 0.0 | 0.00 | 0.00 | 0.00 | 88 | 1021.7 |
| 20260502113928 | 32 | 53 | 0.0 | 0.0 | 0.00 | 0.00 | 0.00 | 89 | 1021.7 |
| 20260502113426 | 32 | 53 | 0.0 | 0.0 | 0.00 | 0.00 | 0.00 | 89 | 1021.6 |
| 20260502112925 | 31 | 54 | 0.0 | 0.0 | 0.00 | 0.00 | 0.00 | 89 | 1021.6 |
| 20260502112422 | 31 | 54 | 0.0 | 0.0 | 0.00 | 0.00 | 0.00 | 89 | 1021.5 |
| 20260502111919 | 31 | 54 | 0.0 | 0.0 | 0.00 | 0.00 | 0.00 | 89 | 1021.4 |
| 20260502111416 | 31 | 53 | 0.0 | 0.0 | 0.00 | 0.00 | 0.00 | 89 | 1021.4 |
| 20260502110914 | 31 | 54 | 0.0 | 0.0 | 0.00 | 0.00 | 0.00 | 89 | 1021.4 |
| 20260502110411 | 30 | 54 | 0.0 | 0.0 | 0.00 | 0.00 | 0.00 | 89 | 1021.3 |
| 20260502105908 | 31 | 54 | 0.0 | 0.0 | 0.00 | 0.00 | 0.00 | 89 | 1021.4 |
| 20260502105405 | 30 | 54 | 0.0 | 0.0 | 0.00 | 0.00 | 0.00 | 89 | 1021.4 |
| 20260502104903 | 30 | 54 | 0.0 | 0.0 | 0.00 | 0.00 | 0.00 | 89 | 1021.2 |
| 20260502104400 | 31 | 54 | 0.0 | 0.0 | 0.00 | 0.00 | 0.00 | 89 | 1021.1 |
| 20260502103857 | 30 | 54 | 0.0 | 0.0 | 0.00 | 0.00 | 0.00 | 89 | 1021.2 |
| 20260502103355 | 30 | 54 | 0.0 | 0.0 | 0.00 | 0.00 | 0.00 | 89 | 1021.2 |
| 20260502102852 | 30 | 54 | 0.0 | 0.0 | 0.00 | 0.00 | 0.00 | 89 | 1021.3 |
| 20260502102348 | 31 | 54 | 0.0 | 0.0 | 0.00 | 0.00 | 0.00 | 89 | 1021.2 |
| 20260502101846 | 31 | 54 | 0.0 | 0.0 | 0.00 | 0.00 | 0.00 | 88 | 1021.2 |
| 20260502101344 | 31 | 54 | 0.0 | 0.0 | 0.00 | 0.00 | 0.00 | 88 | 1021.1 |
| 20260502100842 | 31 | 54 | 0.0 | 0.0 | 0.00 | 0.00 | 0.00 | 88 | 1021.3 |
| 20260502100341 | 31 | 54 | 0.0 | 0.0 | 0.00 | 0.00 | 0.00 | 88 | 1021.2 |
| 20260502091315 | 32 | 72 | 0.0 | 0.0 | 0.00 | 0.00 | 0.00 | 89 | 1021.0 |
| 20260502090813 | 32 | 72 | 0.0 | 0.0 | 0.00 | 0.00 | 0.00 | 90 | 1021.1 |
| 20260502090309 | 32 | 51 | 0.0 | 0.0 | 0.00 | 0.00 | 0.00 | 90 | 1021.1 |
| 20260502071204 | 35 | 51 | 0.0 | 0.0 | 0.00 | 0.00 | 0.00 | 83 | 1021.2 |
| 20260502070703 | 35 | 52 | 0.0 | 0.0 | 0.00 | 0.00 | 0.00 | 81 | 1021.3 |
| 20260502070200 | 35 | 52 | 0.0 | 0.0 | 0.00 | 0.00 | 0.00 | 79 | 1021.3 |
| 20260502065658 | 35 | 52 | 0.0 | 0.0 | 0.00 | 0.00 | 0.00 | 78 | 1021.3 |
| 20260502065155 | 36 | 52 | 0.0 | 0.0 | 0.00 | 0.00 | 0.00 | 77 | 1021.2 |
| 20260502064654 | 36 | 52 | 0.0 | 0.0 | 0.00 | 0.00 | 0.00 | 76 | 1021.3 |
| 20260502064151 | 36 | 52 | 0.0 | 0.0 | 0.00 | 0.00 | 0.00 | 76 | 1021.3 |
| 20260502063649 | 36 | 51 | 0.0 | 0.0 | 0.00 | 0.00 | 0.00 | 74 | 1021.3 |
| 20260502063146 | 36 | 52 | 0.0 | 0.0 | 0.00 | 0.00 | 0.00 | 74 | 1021.3 |
| 20260502062643 | 36 | 52 | 0.0 | 0.0 | 0.00 | 0.00 | 0.00 | 73 | 1021.5 |
| 20260502062141 | 36 | 51 | 0.0 | 0.0 | 0.00 | 0.00 | 0.00 | 74 | 1021.4 |
| 20260502061639 | 37 | 47 | 0.0 | 0.0 | 0.00 | 0.00 | 0.00 | 74 | 1021.5 |
| 20260502061136 | 36 | 48 | 0.0 | 0.0 | 0.00 | 0.00 | 0.00 | 74 | 1021.4 |
| 20260502060636 | 36 | 50 | 0.0 | 0.0 | 0.00 | 0.00 | 0.00 | 73 | 1021.4 |
| 20260502060133 | 36 | 52 | 0.0 | 0.0 | 0.00 | 0.00 | 0.00 | 72 | 1021.3 |
| 20260502055631 | 37 | 69 | 0.0 | 0.0 | 0.00 | 0.00 | 0.00 | 72 | 1021.4 |
| 20260502055129 | 37 | 70 | 0.0 | 0.0 | 0.00 | 0.00 | 0.00 | 72 | 1021.3 |
| 20260502054628 | 38 | 70 | 0.0 | 0.0 | 0.00 | 0.00 | 0.00 | 71 | 1021.3 |
| 20260502054125 | 38 | 81 | 1.0 | 1.0 | 0.00 | 0.00 | 0.00 | 71 | 1021.3 |
| 20260502053622 | 37 | 64 | 0.0 | 0.0 | 0.00 | 0.00 | 0.00 | 73 | 1021.3 |
| 20260502053119 | 37 | 75 | 0.0 | 0.0 | 0.00 | 0.00 | 0.00 | 73 | 1021.2 |
| 20260502052617 | 37 | 57 | 0.0 | 0.0 | 0.00 | 0.00 | 0.00 | 74 | 1021.3 |
| 20260502052115 | 37 | 64 | 0.0 | 0.0 | 0.00 | 0.00 | 0.00 | 76 | 1021.2 |
| 20260502051613 | 37 | 63 | 0.0 | 0.0 | 0.00 | 0.00 | 0.00 | 76 | 1021.1 |
| 20260502051111 | 38 | 57 | 0.0 | 0.0 | 0.00 | 0.00 | 0.00 | 76 | 1021.3 |
| 20260502050607 | 38 | 58 | 0.0 | 0.0 | 0.00 | 0.00 | 0.00 | 76 | 1021.1 |
| 20260502050104 | 39 | 42 | 0.0 | 0.0 | 0.00 | 0.00 | 0.00 | 75 | 1021.1 |
| 20260502045600 | 39 | 43 | 0.0 | 0.0 | 0.00 | 0.00 | 0.00 | 73 | 1020.9 |
| 20260502045057 | 39 | 45 | 0.0 | 0.0 | 0.00 | 0.00 | 0.00 | 72 | 1020.9 |
| 20260502044553 | 38 | 56 | 0.0 | 0.0 | 0.00 | 0.00 | 0.00 | 70 | 1021.0 |
| 20260502044050 | 39 | 57 | 0.0 | 0.0 | 0.00 | 0.00 | 0.00 | 69 | 1020.8 |
| 20260502043548 | 39 | 65 | 0.0 | 0.0 | 0.00 | 0.00 | 0.00 | 67 | 1020.8 |
| 20260502043044 | 40 | 70 | 0.0 | 0.0 | 0.00 | 0.00 | 0.00 | 67 | 1020.8 |
| 20260502042539 | 40 | 79 | 0.0 | 0.0 | 0.00 | 0.00 | 0.00 | 67 | 1020.7 |
| 20260502042037 | 40 | 79 | 0.0 | 0.0 | 0.00 | 0.00 | 0.00 | 66 | 1020.6 |
| 20260502041534 | 40 | 80 | 0.0 | 1.0 | 0.00 | 0.00 | 0.00 | 66 | 1020.8 |
| 20260502041031 | 39 | 52 | 0.0 | 0.0 | 0.00 | 0.00 | 0.00 | 65 | 1020.6 |
| 20260502040528 | 40 | 51 | 0.0 | 0.0 | 0.00 | 0.00 | 0.00 | 64 | 1020.7 |
| 20260502040025 | 40 | 49 | 0.0 | 0.0 | 0.00 | 0.00 | 0.00 | 63 | 1020.7 |
| 20260502035521 | 41 | 41 | 0.0 | 1.0 | 0.00 | 0.00 | 0.00 | 62 | 1020.6 |
| 20260502035018 | 40 | 38 | 0.0 | 0.0 | 0.00 | 0.00 | 0.00 | 64 | 1020.6 |
| 20260502034516 | 40 | 53 | 0.0 | 0.0 | 0.00 | 0.00 | 0.00 | 63 | 1020.6 |
| 20260502034015 | 41 | 53 | 0.0 | 0.0 | 0.00 | 0.00 | 0.00 | 63 | 1020.5 |
| 20260502033512 | 40 | 53 | 0.0 | 0.0 | 0.00 | 0.00 | 0.00 | 63 | 1020.4 |
| 20260502033009 | 40 | 54 | 0.0 | 0.0 | 0.00 | 0.00 | 0.00 | 63 | 1020.4 |
| 20260502032505 | 41 | 54 | 0.0 | 0.0 | 0.00 | 0.00 | 0.00 | 63 | 1020.3 |
| 20260502032002 | 41 | 54 | 0.0 | 0.0 | 0.00 | 0.00 | 0.00 | 61 | 1020.3 |
| 20260502031500 | 42 | 54 | 0.0 | 0.0 | 0.00 | 0.00 | 0.00 | 60 | 1020.3 |
| 20260502030958 | 42 | 54 | 0.0 | 0.0 | 0.00 | 0.00 | 0.00 | 59 | 1020.3 |
| 20260502030456 | 43 | 57 | 0.0 | 0.0 | 0.00 | 0.00 | 0.00 | 57 | 1020.2 |
| 20260502025954 | 43 | 58 | 0.0 | 0.0 | 0.00 | 0.00 | 0.00 | 57 | 1020.1 |
| 20260502025450 | 43 | 58 | 0.0 | 0.0 | 0.00 | 0.00 | 0.00 | 55 | 1020.0 |
| 20260502024948 | 43 | 53 | 0.0 | 0.0 | 0.00 | 0.00 | 0.00 | 55 | 1020.1 |
| 20260502024446 | 43 | 44 | 0.0 | 0.0 | 0.00 | 0.00 | 0.00 | 55 | 1020.1 |
| 20260502023944 | 44 | 52 | 0.0 | 0.0 | 0.00 | 0.00 | 0.00 | 54 | 1019.7 |
| 20260502023441 | 44 | 37 | 0.0 | 0.0 | 0.00 | 0.00 | 0.00 | 54 | 1019.9 |
| 20260502022939 | 44 | 43 | 0.0 | 0.0 | 0.00 | 0.00 | 0.00 | 54 | 1019.6 |
| 20260502022435 | 44 | 9 | 1.0 | 1.0 | 0.00 | 0.00 | 0.00 | 54 | 1019.7 |
| 20260502021932 | 45 | 37 | 0.0 | 1.0 | 0.00 | 0.00 | 0.00 | 53 | 1019.6 |
| 20260502021430 | 46 | 55 | 0.0 | 1.0 | 0.00 | 0.00 | 0.00 | 51 | 1019.7 |
| 20260502020927 | 46 | 67 | 0.0 | 0.0 | 0.00 | 0.00 | 0.00 | 50 | 1019.6 |
| 20260502020425 | 46 | 63 | 0.0 | 0.0 | 0.00 | 0.00 | 0.00 | 48 | 1019.6 |
| 20260502015921 | 47 | 55 | 0.0 | 0.0 | 0.00 | 0.00 | 0.00 | 47 | 1019.5 |
| 20260502015419 | 47 | 55 | 0.0 | 0.0 | 0.00 | 0.00 | 0.00 | 46 | 1019.3 |
| 20260502014915 | 47 | 56 | 0.0 | 1.0 | 0.00 | 0.00 | 0.00 | 45 | 1019.3 |
| 20260502014412 | 48 | 4 | 1.0 | 1.0 | 0.00 | 0.00 | 0.00 | 45 | 1019.3 |
| 20260502013908 | 48 | 2 | 2.0 | 2.0 | 0.00 | 0.00 | 0.00 | 45 | 1019.0 |
| 20260502013404 | 48 | 45 | 1.0 | 1.0 | 0.00 | 0.00 | 0.00 | 44 | 1019.0 |
| 20260502012901 | 49 | 40 | 1.0 | 2.0 | 0.00 | 0.00 | 0.00 | 43 | 1019.0 |
| 20260502012359 | 49 | 3 | 3.0 | 3.0 | 0.00 | 0.00 | 0.00 | 42 | 1018.8 |
| 20260502011856 | 49 | 50 | 1.0 | 1.0 | 0.00 | 0.00 | 0.00 | 42 | 1018.9 |
| 20260502011352 | 50 | 70 | 0.0 | 1.0 | 0.00 | 0.00 | 0.00 | 41 | 1018.8 |
| 20260502010849 | 50 | 32 | 1.0 | 1.0 | 0.00 | 0.00 | 0.00 | 41 | 1018.8 |
| 20260502010346 | 50 | 347 | 3.0 | 4.0 | 0.00 | 0.00 | 0.00 | 41 | 1018.8 |
| 20260502005842 | 51 | 346 | 5.0 | 7.0 | 0.00 | 0.00 | 0.00 | 40 | 1018.6 |
| 20260502005340 | 51 | 342 | 4.0 | 4.0 | 0.00 | 0.00 | 0.00 | 39 | 1018.6 |
| 20260502004837 | 51 | 332 | 5.0 | 7.0 | 0.00 | 0.00 | 0.00 | 38 | 1018.5 |
| 20260502004333 | 52 | 297 | 1.0 | 2.0 | 0.00 | 0.00 | 0.00 | 38 | 1018.6 |
| 20260502003831 | 52 | 54 | 2.0 | 2.0 | 0.00 | 0.00 | 0.00 | 37 | 1018.5 |
| 20260502003328 | 52 | 66 | 2.0 | 2.0 | 0.00 | 0.00 | 0.00 | 37 | 1018.6 |
| 20260502002824 | 52 | 331 | 2.0 | 3.0 | 0.00 | 0.00 | 0.00 | 37 | 1018.4 |
| 20260502002322 | 53 | 357 | 1.0 | 2.0 | 0.00 | 0.00 | 0.00 | 36 | 1018.4 |
| 20260502001819 | 53 | 339 | 4.0 | 6.0 | 0.00 | 0.00 | 0.00 | 36 | 1018.5 |
| 20260502001317 | 53 | 334 | 6.0 | 9.0 | 0.00 | 0.00 | 0.00 | 36 | 1018.5 |
| 20260502000814 | 53 | 356 | 4.0 | 4.0 | 0.00 | 0.00 | 0.00 | 35 | 1018.4 |
| 20260502000312 | 53 | 269 | 4.0 | 6.0 | 0.00 | 0.00 | 0.00 | 36 | 1018.4 |
| 20260501235808 | 53 | 13 | 6.0 | 7.0 | 0.00 | 0.00 | 0.00 | 36 | 1018.3 |
| 20260501235305 | 53 | 50 | 2.0 | 3.0 | 0.00 | 0.00 | 0.00 | 37 | 1018.2 |